4 月 20 日 (星期五) | 會員登記|會員中心
買賣區主頁 > 攝影產品 > 數碼相機 (1018)
Canon 1dx
HK$19,000
所有物品 | 出售 | 徵求 排序 :  更新時間 | 刊登時間
 圖片 標題 價格 賣方/買方 瀏覽 更新時間
Fujifilm XE-1 銀黑色HK$1,400leechihau2020/04 15:00
Sony Cyber-shot DSC-RX100 IIHK$2,800ariesfung1197720/04 14:43
 Sony WX500 【等待確認】HK$900SethLo237420/04 14:36
fujifilm xe3HK$5,000qoo081917020/04 14:35
 Gopro 4 black 連原裝配件 x IPhone s9 p20HK$1,250kobesum145420/04 14:28
Canon Selphy CP-900HK$800snoopyyun104220/04 14:27
Sony RX100 m3 【等待確認】HK$2,900Kubecccc 97120/04 14:27
NOKIA手機HK$300WAIP0224676920/04 14:24
維修Nikon相機--digi.camera82120/04 14:15
3TB 98% WD Western Digital Cloud 3TB WDBCTL0030HWT NAS 【等待確認】HK$880sammy23hk200257320/04 13:56
Fujifilm Wp Z33 防水數碼相機, 甲蟲色HK$390Jacky201869820/04 13:55
Panasonic DMC-TZ110 (black)HK$3,280waterct54920/04 13:46
Olympus H.zuiko 42mm f1.2 ( 可COVER 9成FF 有a7 sample FUJIFILM NEX )HK$2,500tommy1113238520/04 13:40
Olympus u Tough 6000 防水防撞 三防相機 85%新HK$398Peter2866720/04 13:36
samsung NV100HD 28mm/2.8 施耐德鏡頭Schneider Lens 觸屏LCDHK$420Peter32844520/04 13:36
Olympus Mju 1050SW 防水、防塵、防撞, 地盤工作機 可用micro SD 卡HK$390paul201653820/04 13:31
 Ricoh GXR + S10 24-70mm f2.5-4.4 VCHK$1,700choihiukai313520/04 13:27
RX100 M3 連Apps 【等待確認】HK$2,900lwmngq90220/04 13:13
數碼相機維修鏡頭維修HK$99airking8108820/04 13:11
canon power shotsx620 【已完成】HK$1,200axjoker79820/04 12:54
 Canon Power shotHK$1,250cschan63127320/04 12:53
 Pentax Optio I-10HK$300bosslam88114120/04 12:46
Fujifilm XT-2(黑色) , MGH-XT2 (原裝手柄)HK$8,000leechihau32220/04 12:29
放全部收藏品逾90%新DKL Mount純德國白銀帝國共五支鏡(送DKL接EOS Mount或)=$7500--kcmc928145620/04 12:10
Sigma DP2 Merrill DP2M (with View Finder - Sigma VF-21)HK$4,500ahmay_may25820/04 12:00
 Fujifilm XQ1 原裝 leather half case,全新!HK$200Homogenous161320/04 11:51
Leica M-E with Classic EngravingHK$24,000whleung963520/04 11:49
Konica Minolta DiMAGE Z6 95%新. 半專業相機HK$390Bill201856920/04 11:45
FUJIFILM Finepix V10HK$428Bill201853320/04 11:45
FUJIFILM F40FD 1/1.6吋Super CCD HR, XD,SD 雙卡 Panasonic DE-A12(A42)火牛HK$380Bill201853020/04 11:45